Lady Lara — ZGEZ3 — position and weather

sailwx.info

Track history (hours):
 
Tides and Currents Weather Stations Pressure Air Temp Water Temp Dewpoint Dewpoint Depression Visibility Wind Speed Wind Dir Waves Ship Positions

Lady Lara

Last reported at 2018-Jun-25 05:53 UTC. Time now 2018-Jun-25 06:14 UTC.
Position N 38°46' E 001°26'.

Length 91 m; draft 4 m.

Type: Pleasure craft. MMSI: 319082300.

Date/timePositionNaut miles runAvg speedWind from/ knotsBaromVisibWave heightAir tempDewpointWater temp
2018-Jun-25 05:53N 38°46' E 001°26'0 0.0
2018-Jun-25 05:20N 38°46' E 001°26'0 0.0
2018-Jun-25 04:56N 38°46' E 001°26'0 0.0
2018-Jun-25 04:14N 38°46' E 001°26'0 0.0
2018-Jun-25 01:44N 38°46' E 001°26'0 0.0
2018-Jun-25 01:26N 38°46' E 001°26'0 0.0
2018-Jun-25 00:56N 38°46' E 001°26'0 0.0
2018-Jun-25 00:26N 38°46' E 001°26'0 0.0
2018-Jun-24 22:38N 38°46' E 001°26'0 0.0
2018-Jun-24 22:14N 38°46' E 001°26'0 0.0
2018-Jun-24 21:56N 38°46' E 001°26'0 0.0
2018-Jun-24 21:14N 38°46' E 001°26'0 0.0
2018-Jun-24 20:56N 38°46' E 001°26'0 0.0
2018-Jun-24 19:56N 38°46' E 001°26'0 0.0
2018-Jun-24 19:26N 38°46' E 001°26'8 0.5
2018-Jun-24 03:52N 38°54' E 001°26'0 0.0
2018-Jun-24 03:19N 38°54' E 001°26'0 0.0
2018-Jun-24 02:58N 38°54' E 001°26'0 0.0
2018-Jun-24 02:25N 38°54' E 001°26'0 0.0
2018-Jun-24 00:40N 38°54' E 001°26'0 0.0
2018-Jun-24 00:13N 38°54' E 001°26'0 0.0
2018-Jun-23 23:49N 38°54' E 001°26'0 0.0
2018-Jun-23 22:01N 38°54' E 001°26'0 0.0
2018-Jun-23 21:58N 38°54' E 001°26'0 0.0
2018-Jun-23 21:19N 38°54' E 001°26'0 0.0
2018-Jun-23 20:58N 38°54' E 001°26'0 0.0
2018-Jun-23 20:13N 38°54' E 001°26'0 0.0
2018-Jun-23 18:34N 38°54' E 001°26'0 1.0
2018-Jun-23 18:09N 38°54' E 001°27'1 9.0
2018-Jun-23 18:00N 38°52' E 001°27'5 8.7
2018-Jun-23 17:23N 38°50' E 001°21'3 7.8
2018-Jun-23 16:58N 38°52' E 001°18'0 0.0
2018-Jun-23 10:02N 38°52' E 001°18'0 0.0
2018-Jun-22 12:27N 38°52' E 001°18'2 5.4
2018-Jun-22 11:59N 38°50' E 001°20'5 8.0
2018-Jun-22 11:22N 38°51' E 001°26'410.1
2018-Jun-22 11:00N 38°55' E 001°27'0 0.4
2018-Jun-22 10:27N 38°55' E 001°26'0 0.0
2018-Jun-22 09:48N 38°55' E 001°26'0 0.0
2018-Jun-22 09:30N 38°55' E 001°26'0 0.0
2018-Jun-22 08:54N 38°55' E 001°26'0 0.0
2018-Jun-22 08:27N 38°55' E 001°26'0 0.0
2018-Jun-22 07:54N 38°55' E 001°26'0 0.0
2018-Jun-22 07:27N 38°55' E 001°26'0 0.0
2018-Jun-22 07:00N 38°55' E 001°26'0 0.0
2018-Jun-22 06:27N 38°55' E 001°26'0 0.0
2018-Jun-22 06:00N 38°55' E 001°26'0 0.0
2018-Jun-22 05:27N 38°55' E 001°26'0 0.0
2018-Jun-22 04:48N 38°55' E 001°26'0 0.0
2018-Jun-22 04:27N 38°55' E 001°26'0 0.0
2018-Jun-22 03:54N 38°55' E 001°26'0 0.0
2018-Jun-22 03:30N 38°55' E 001°26'0 0.0
2018-Jun-22 03:00N 38°55' E 001°26'0 0.0
2018-Jun-22 02:30N 38°55' E 001°26'0 0.0
2018-Jun-22 02:00N 38°55' E 001°26'0 0.0
2018-Jun-22 01:30N 38°55' E 001°26'0 0.0
2018-Jun-22 01:00N 38°55' E 001°26'0 0.0
2018-Jun-22 00:24N 38°55' E 001°26'0 0.0
2018-Jun-21 23:54N 38°55' E 001°26'0 0.0
2018-Jun-21 23:24N 38°55' E 001°26'0 0.0
2018-Jun-21 23:00N 38°55' E 001°26'0 0.0
2018-Jun-21 22:27N 38°55' E 001°26'0 0.0
2018-Jun-21 22:00N 38°55' E 001°26'0 0.0
2018-Jun-21 21:30N 38°55' E 001°26'0 0.0
2018-Jun-21 20:54N 38°55' E 001°26'0 0.0
2018-Jun-21 20:27N 38°55' E 001°26'0 0.0
2018-Jun-21 19:57N 38°55' E 001°26'0 0.0
2018-Jun-21 19:30N 38°55' E 001°26'0 0.0
2018-Jun-21 19:00N 38°55' E 001°26'0 0.0
2018-Jun-21 18:27N 38°55' E 001°26'0 0.0
2018-Jun-21 16:51N 38°55' E 001°26'0 0.0
2018-Jun-21 16:21N 38°55' E 001°26'0 0.0
2018-Jun-21 14:42N 38°55' E 001°26'0 0.0
2018-Jun-21 14:18N 38°55' E 001°26'0 0.0
2018-Jun-21 08:21N 38°55' E 001°26'0 0.0
2018-Jun-21 07:54N 38°55' E 001°26'0 0.0
2018-Jun-21 06:24N 38°55' E 001°26'0 0.0
2018-Jun-21 03:00N 38°55' E 001°26'0 0.0
2018-Jun-21 01:30N 38°55' E 001°26'0 0.0
2018-Jun-20 20:33N 38°55' E 001°26'0 0.0
2018-Jun-20 20:12N 38°55' E 001°26'0 0.0
2018-Jun-20 20:00N 38°55' E 001°26'0 0.0
2018-Jun-20 18:42N 38°55' E 001°26'0 0.0
2018-Jun-20 15:21N 38°55' E 001°26'0 0.0
2018-Jun-20 12:51N 38°55' E 001°26'0 0.0
2018-Jun-20 08:15N 38°55' E 001°26'0 0.0
2018-Jun-20 07:58N 38°55' E 001°26'1 2.1
2018-Jun-20 07:27N 38°54' E 001°27'8 0.5
2018-Jun-19 14:30N 38°46' E 001°26'0 0.0
2018-Jun-19 11:21N 38°46' E 001°26'0 0.0
2018-Jun-19 10:30N 38°46' E 001°26'0 0.0
2018-Jun-18 19:24N 38°46' E 001°26'0 0.0
2018-Jun-17 17:42N 38°46' E 001°26'0 0.0
2018-Jun-17 15:00N 38°46' E 001°26'0 0.0
2018-Jun-17 14:24N 38°46' E 001°26'0 0.0
2018-Jun-17 14:00N 38°46' E 001°26'0 0.0
2018-Jun-17 13:30N 38°46' E 001°26'0 0.1
2018-Jun-17 13:00N 38°46' E 001°26'0 0.0
2018-Jun-17 12:17N 38°46' E 001°26'0 0.2
2018-Jun-17 11:57N 38°46' E 001°26'8 2.7
2018-Jun-17 09:05N 38°51' E 001°19'0 0.0
2018-Jun-17 08:53N 38°51' E 001°19'0 0.0
2018-Jun-17 08:23N 38°51' E 001°19'0 0.0
2018-Jun-17 05:17N 38°51' E 001°19'0 0.0
2018-Jun-17 04:59N 38°51' E 001°19'0 0.0
2018-Jun-17 04:17N 38°51' E 001°19'0 0.0
2018-Jun-17 03:59N 38°51' E 001°19'0 0.0
2018-Jun-17 02:11N 38°51' E 001°19'0 0.0
2018-Jun-17 00:53N 38°51' E 001°19'0 0.0
2018-Jun-16 19:59N 38°51' E 001°19'0 0.0
2018-Jun-16 19:23N 38°51' E 001°19'0 0.0
2018-Jun-16 18:59N 38°51' E 001°19'0 0.0
2018-Jun-16 18:11N 38°51' E 001°19'0 0.0
2018-Jun-16 17:53N 38°51' E 001°19'0 0.0
2018-Jun-16 16:23N 38°51' E 001°19'0 0.0
2018-Jun-16 15:47N 38°51' E 001°19'0 0.0
2018-Jun-16 15:29N 38°51' E 001°19'0 0.0
2018-Jun-16 11:59N 38°51' E 001°19'0 0.0
2018-Jun-16 11:29N 38°51' E 001°19'0 0.0
2018-Jun-16 10:47N 38°51' E 001°19'0 0.0
2018-Jun-16 10:29N 38°51' E 001°19'0 0.0
2018-Jun-16 09:53N 38°51' E 001°19'0 0.0
2018-Jun-16 09:05N 38°51' E 001°19'0 0.0
2018-Jun-16 08:53N 38°51' E 001°19'0 0.0
2018-Jun-16 08:17N 38°51' E 001°19'0 0.0
2018-Jun-16 07:59N 38°51' E 001°19'0 0.0
2018-Jun-16 04:53N 38°51' E 001°19'0 0.0
2018-Jun-16 03:05N 38°51' E 001°19'0 0.0
2018-Jun-16 01:35N 38°51' E 001°19'0 0.0
2018-Jun-16 00:29N 38°51' E 001°19'0 0.0
2018-Jun-15 23:53N 38°51' E 001°19'0 0.0
2018-Jun-15 19:17N 38°51' E 001°19'0 0.0
2018-Jun-15 17:41N 38°51' E 001°19'0 0.0
2018-Jun-15 17:23N 38°51' E 001°19'  
Track history (hours):
 
Tides and Currents Weather Stations Pressure Air Temp Water Temp Dewpoint Dewpoint Depression Visibility Wind Speed Wind Dir Waves Ship Positions

Lady Lara

Last reported at 2018-Jun-25 05:53 UTC. Time now 2018-Jun-25 06:14 UTC.
Position N 38°46' E 001°26'.

Length 91 m; draft 4 m.

Type: Pleasure craft. MMSI: 319082300.

Date/timePositionNaut miles runAvg speedWind from/ knotsBaromVisibWave heightAir tempDewpointWater temp
2018-Jun-25 05:53N 38°46' E 001°26'0 0.0
2018-Jun-25 05:20N 38°46' E 001°26'0 0.0
2018-Jun-25 04:56N 38°46' E 001°26'0 0.0
2018-Jun-25 04:14N 38°46' E 001°26'0 0.0
2018-Jun-25 01:44N 38°46' E 001°26'0 0.0
2018-Jun-25 01:26N 38°46' E 001°26'0 0.0
2018-Jun-25 00:56N 38°46' E 001°26'0 0.0
2018-Jun-25 00:26N 38°46' E 001°26'0 0.0
2018-Jun-24 22:38N 38°46' E 001°26'0 0.0
2018-Jun-24 22:14N 38°46' E 001°26'0 0.0
2018-Jun-24 21:56N 38°46' E 001°26'0 0.0
2018-Jun-24 21:14N 38°46' E 001°26'0 0.0
2018-Jun-24 20:56N 38°46' E 001°26'0 0.0
2018-Jun-24 19:56N 38°46' E 001°26'0 0.0
2018-Jun-24 19:26N 38°46' E 001°26'8 0.5
2018-Jun-24 03:52N 38°54' E 001°26'0 0.0
2018-Jun-24 03:19N 38°54' E 001°26'0 0.0
2018-Jun-24 02:58N 38°54' E 001°26'0 0.0
2018-Jun-24 02:25N 38°54' E 001°26'0 0.0
2018-Jun-24 00:40N 38°54' E 001°26'0 0.0
2018-Jun-24 00:13N 38°54' E 001°26'0 0.0
2018-Jun-23 23:49N 38°54' E 001°26'0 0.0
2018-Jun-23 22:01N 38°54' E 001°26'0 0.0
2018-Jun-23 21:58N 38°54' E 001°26'0 0.0
2018-Jun-23 21:19N 38°54' E 001°26'0 0.0
2018-Jun-23 20:58N 38°54' E 001°26'0 0.0
2018-Jun-23 20:13N 38°54' E 001°26'0 0.0
2018-Jun-23 18:34N 38°54' E 001°26'0 1.0
2018-Jun-23 18:09N 38°54' E 001°27'1 9.0
2018-Jun-23 18:00N 38°52' E 001°27'5 8.7
2018-Jun-23 17:23N 38°50' E 001°21'3 7.8
2018-Jun-23 16:58N 38°52' E 001°18'0 0.0
2018-Jun-23 10:02N 38°52' E 001°18'0 0.0
2018-Jun-22 12:27N 38°52' E 001°18'2 5.4
2018-Jun-22 11:59N 38°50' E 001°20'5 8.0
2018-Jun-22 11:22N 38°51' E 001°26'410.1
2018-Jun-22 11:00N 38°55' E 001°27'0 0.4
2018-Jun-22 10:27N 38°55' E 001°26'0 0.0
2018-Jun-22 09:48N 38°55' E 001°26'0 0.0
2018-Jun-22 09:30N 38°55' E 001°26'0 0.0
2018-Jun-22 08:54N 38°55' E 001°26'0 0.0
2018-Jun-22 08:27N 38°55' E 001°26'0 0.0
2018-Jun-22 07:54N 38°55' E 001°26'0 0.0
2018-Jun-22 07:27N 38°55' E 001°26'0 0.0
2018-Jun-22 07:00N 38°55' E 001°26'0 0.0
2018-Jun-22 06:27N 38°55' E 001°26'0 0.0
2018-Jun-22 06:00N 38°55' E 001°26'0 0.0
2018-Jun-22 05:27N 38°55' E 001°26'0 0.0
2018-Jun-22 04:48N 38°55' E 001°26'0 0.0
2018-Jun-22 04:27N 38°55' E 001°26'0 0.0
2018-Jun-22 03:54N 38°55' E 001°26'0 0.0
2018-Jun-22 03:30N 38°55' E 001°26'0 0.0
2018-Jun-22 03:00N 38°55' E 001°26'0 0.0
2018-Jun-22 02:30N 38°55' E 001°26'0 0.0
2018-Jun-22 02:00N 38°55' E 001°26'0 0.0
2018-Jun-22 01:30N 38°55' E 001°26'0 0.0
2018-Jun-22 01:00N 38°55' E 001°26'0 0.0
2018-Jun-22 00:24N 38°55' E 001°26'0 0.0
2018-Jun-21 23:54N 38°55' E 001°26'0 0.0
2018-Jun-21 23:24N 38°55' E 001°26'0 0.0
2018-Jun-21 23:00N 38°55' E 001°26'0 0.0
2018-Jun-21 22:27N 38°55' E 001°26'0 0.0
2018-Jun-21 22:00N 38°55' E 001°26'0 0.0
2018-Jun-21 21:30N 38°55' E 001°26'0 0.0
2018-Jun-21 20:54N 38°55' E 001°26'0 0.0
2018-Jun-21 20:27N 38°55' E 001°26'0 0.0
2018-Jun-21 19:57N 38°55' E 001°26'0 0.0
2018-Jun-21 19:30N 38°55' E 001°26'0 0.0
2018-Jun-21 19:00N 38°55' E 001°26'0 0.0
2018-Jun-21 18:27N 38°55' E 001°26'0 0.0
2018-Jun-21 16:51N 38°55' E 001°26'0 0.0
2018-Jun-21 16:21N 38°55' E 001°26'0 0.0
2018-Jun-21 14:42N 38°55' E 001°26'0 0.0
2018-Jun-21 14:18N 38°55' E 001°26'0 0.0
2018-Jun-21 08:21N 38°55' E 001°26'0 0.0
2018-Jun-21 07:54N 38°55' E 001°26'0 0.0
2018-Jun-21 06:24N 38°55' E 001°26'0 0.0
2018-Jun-21 03:00N 38°55' E 001°26'0 0.0
2018-Jun-21 01:30N 38°55' E 001°26'0 0.0
2018-Jun-20 20:33N 38°55' E 001°26'0 0.0
2018-Jun-20 20:12N 38°55' E 001°26'0 0.0
2018-Jun-20 20:00N 38°55' E 001°26'0 0.0
2018-Jun-20 18:42N 38°55' E 001°26'0 0.0
2018-Jun-20 15:21N 38°55' E 001°26'0 0.0
2018-Jun-20 12:51N 38°55' E 001°26'0 0.0
2018-Jun-20 08:15N 38°55' E 001°26'0 0.0
2018-Jun-20 07:58N 38°55' E 001°26'1 2.1
2018-Jun-20 07:27N 38°54' E 001°27'8 0.5
2018-Jun-19 14:30N 38°46' E 001°26'0 0.0
2018-Jun-19 11:21N 38°46' E 001°26'0 0.0
2018-Jun-19 10:30N 38°46' E 001°26'0 0.0
2018-Jun-18 19:24N 38°46' E 001°26'0 0.0
2018-Jun-17 17:42N 38°46' E 001°26'0 0.0
2018-Jun-17 15:00N 38°46' E 001°26'0 0.0
2018-Jun-17 14:24N 38°46' E 001°26'0 0.0
2018-Jun-17 14:00N 38°46' E 001°26'0 0.0
2018-Jun-17 13:30N 38°46' E 001°26'0 0.1
2018-Jun-17 13:00N 38°46' E 001°26'0 0.0
2018-Jun-17 12:17N 38°46' E 001°26'0 0.2
2018-Jun-17 11:57N 38°46' E 001°26'8 2.7
2018-Jun-17 09:05N 38°51' E 001°19'0 0.0
2018-Jun-17 08:53N 38°51' E 001°19'0 0.0
2018-Jun-17 08:23N 38°51' E 001°19'0 0.0
2018-Jun-17 05:17N 38°51' E 001°19'0 0.0
2018-Jun-17 04:59N 38°51' E 001°19'0 0.0
2018-Jun-17 04:17N 38°51' E 001°19'0 0.0
2018-Jun-17 03:59N 38°51' E 001°19'0 0.0
2018-Jun-17 02:11N 38°51' E 001°19'0 0.0
2018-Jun-17 00:53N 38°51' E 001°19'0 0.0
2018-Jun-16 19:59N 38°51' E 001°19'0 0.0
2018-Jun-16 19:23N 38°51' E 001°19'0 0.0
2018-Jun-16 18:59N 38°51' E 001°19'0 0.0
2018-Jun-16 18:11N 38°51' E 001°19'0 0.0
2018-Jun-16 17:53N 38°51' E 001°19'0 0.0
2018-Jun-16 16:23N 38°51' E 001°19'0 0.0
2018-Jun-16 15:47N 38°51' E 001°19'0 0.0
2018-Jun-16 15:29N 38°51' E 001°19'0 0.0
2018-Jun-16 11:59N 38°51' E 001°19'0 0.0
2018-Jun-16 11:29N 38°51' E 001°19'0 0.0
2018-Jun-16 10:47N 38°51' E 001°19'0 0.0
2018-Jun-16 10:29N 38°51' E 001°19'0 0.0
2018-Jun-16 09:53N 38°51' E 001°19'0 0.0
2018-Jun-16 09:05N 38°51' E 001°19'0 0.0
2018-Jun-16 08:53N 38°51' E 001°19'0 0.0
2018-Jun-16 08:17N 38°51' E 001°19'0 0.0
2018-Jun-16 07:59N 38°51' E 001°19'0 0.0
2018-Jun-16 04:53N 38°51' E 001°19'0 0.0
2018-Jun-16 03:05N 38°51' E 001°19'0 0.0
2018-Jun-16 01:35N 38°51' E 001°19'0 0.0
2018-Jun-16 00:29N 38°51' E 001°19'0 0.0
2018-Jun-15 23:53N 38°51' E 001°19'0 0.0
2018-Jun-15 19:17N 38°51' E 001°19'0 0.0
2018-Jun-15 17:41N 38°51' E 001°19'0 0.0
2018-Jun-15 17:23N 38°51' E 001°19'  

Dump ship's entire track history